Time,TemperatureF,DewpointF,PressureIn,WindDirection,WindDirectionDegrees,WindSpeedMPH,WindSpeedGustMPH,Humidity,HourlyPrecipIn,Conditions,Clouds,dailyrainin,SoftwareType,DateUTC
2013-04-11 00:02:00,39.0,38.0,-100.00,ENE,75,9.0,12.0,94,0.00,,,-99.99,,2013-04-11 05:02:00,
2013-04-11 00:12:00,39.0,38.0,-100.00,East,80,7.0,11.0,94,0.01,,,-99.99,,2013-04-11 05:12:00,
2013-04-11 00:22:00,39.0,38.0,-100.00,East,90,4.0,8.0,94,0.01,,,-99.99,,2013-04-11 05:22:00,
2013-04-11 00:32:00,39.0,38.0,-100.00,ENE,60,4.0,6.0,94,0.01,,,-99.99,,2013-04-11 05:32:00,
2013-04-11 00:42:00,39.0,38.0,-100.00,ENE,60,4.0,6.0,94,0.01,,,-99.99,,2013-04-11 05:42:00,
2013-04-11 00:52:00,39.0,38.0,-100.00,NNE,30,1.0,5.0,94,0.00,,,-99.99,,2013-04-11 05:52:00,
2013-04-11 01:02:00,39.0,38.0,-100.00,NNE,30,1.0,5.0,94,0.00,,,-99.99,,2013-04-11 06:02:00,
2013-04-11 01:12:00,39.0,38.0,-100.00,ENE,75,3.0,4.0,94,0.08,,,-99.99,,2013-04-11 06:12:00,
2013-04-11 01:22:00,39.0,38.0,-100.00,East,80,4.0,6.0,95,0.00,,,-99.99,,2013-04-11 06:22:00,
2013-04-11 01:32:00,39.0,38.0,-100.00,ENE,60,1.0,4.0,95,0.01,,,-99.99,,2013-04-11 06:32:00,
2013-04-11 01:42:00,39.0,38.0,-100.00,ENE,60,8.0,11.0,95,0.00,,,-99.99,,2013-04-11 06:42:00,
2013-04-11 01:52:00,39.0,38.0,-100.00,East,80,5.0,9.0,95,0.00,,,-99.99,,2013-04-11 06:52:00,
2013-04-11 02:02:00,39.0,38.0,-100.00,East,80,5.0,9.0,95,0.00,,,-99.99,,2013-04-11 07:02:00,
2013-04-11 02:12:00,39.0,38.0,-100.00,ENE,75,4.0,10.0,95,0.00,,,-99.99,,2013-04-11 07:12:00,
2013-04-11 02:22:00,39.0,38.0,-100.00,East,80,4.0,6.0,95,0.01,,,-99.99,,2013-04-11 07:22:00,
2013-04-11 02:32:00,39.0,38.0,-100.00,NE,40,2.0,4.0,95,0.04,,,-99.99,,2013-04-11 07:32:00,
2013-04-11 02:42:00,39.0,38.0,-100.00,NE,40,2.0,4.0,95,0.04,,,-99.99,,2013-04-11 07:42:00,
2013-04-11 02:52:00,39.0,38.0,-100.00,NNW,330,0.0,2.0,95,0.01,,,-99.99,,2013-04-11 07:52:00,
2013-04-11 03:02:00,39.0,38.0,-100.00,NNW,330,0.0,2.0,95,0.01,,,-99.99,,2013-04-11 08:02:00,
2013-04-11 03:12:00,39.0,38.0,-100.00,WNW,300,2.0,4.0,95,0.00,,,-99.99,,2013-04-11 08:12:00,
2013-04-11 03:22:00,39.0,38.0,-100.00,NW,310,2.0,4.0,95,0.01,,,-99.99,,2013-04-11 08:22:00,
2013-04-11 03:32:00,39.0,38.0,-100.00,NNW,345,3.0,4.0,95,0.03,,,-99.99,,2013-04-11 08:32:00,
2013-04-11 03:42:00,39.0,38.0,-100.00,NNW,345,3.0,4.0,95,0.03,,,-99.99,,2013-04-11 08:42:00,
2013-04-11 03:52:00,39.0,38.0,-100.00,NNE,25,0.0,3.0,95,0.01,,,-99.99,,2013-04-11 08:52:00,
2013-04-11 04:02:00,39.0,38.0,-100.00,NNE,25,0.0,3.0,95,0.01,,,-99.99,,2013-04-11 09:02:00,
2013-04-11 04:12:00,39.0,38.0,-100.00,North,350,2.0,2.0,95,0.16,,,-99.99,,2013-04-11 09:12:00,
2013-04-11 04:22:00,39.0,37.0,-100.00,North,355,2.0,2.0,95,0.11,,,-99.99,,2013-04-11 09:22:00,
2013-04-11 04:33:00,38.0,37.0,-100.00,NNW,345,3.0,4.0,95,0.00,,,-99.99,,2013-04-11 09:33:00,
2013-04-11 04:42:00,38.0,37.0,-100.00,NNW,345,3.0,4.0,95,0.00,,,-99.99,,2013-04-11 09:42:00,
2013-04-11 04:52:00,38.0,37.0,-100.00,North,0,4.0,6.0,95,0.00,,,-99.99,,2013-04-11 09:52:00,
2013-04-11 05:02:00,38.0,37.0,-100.00,NNW,345,5.0,7.0,95,0.00,,,-99.99,,2013-04-11 10:02:00,
2013-04-11 05:12:00,38.0,37.0,-100.00,North,0,4.0,6.0,95,0.00,,,-99.99,,2013-04-11 10:12:00,
2013-04-11 05:23:00,38.0,37.0,-100.00,NNE,25,2.0,7.0,95,0.00,,,-99.99,,2013-04-11 10:23:00,
2013-04-11 05:32:00,38.0,37.0,-100.00,NE,35,6.0,8.0,95,0.00,,,-99.99,,2013-04-11 10:32:00,
2013-04-11 05:42:00,38.0,37.0,-100.00,NE,35,6.0,8.0,95,0.00,,,-99.99,,2013-04-11 10:42:00,
2013-04-11 05:52:00,38.0,37.0,-100.00,NNE,30,4.0,9.0,95,0.00,,,-99.99,,2013-04-11 10:52:00,
2013-04-11 06:02:00,38.0,37.0,-100.00,NNE,30,4.0,9.0,95,0.00,,,-99.99,,2013-04-11 11:02:00,
2013-04-11 06:12:00,38.0,37.0,-100.00,ENE,60,4.0,7.0,95,0.00,,,-99.99,,2013-04-11 11:12:00,
2013-04-11 06:22:00,38.0,37.0,-100.00,East,90,4.0,6.0,95,0.00,,,-99.99,,2013-04-11 11:22:00,
2013-04-11 06:32:00,38.0,37.0,-100.00,North,355,1.0,4.0,95,0.00,,,-99.99,,2013-04-11 11:32:00,
2013-04-11 06:42:00,38.0,37.0,-100.00,North,355,1.0,4.0,95,0.00,,,-99.99,,2013-04-11 11:42:00,
2013-04-11 06:52:00,38.0,37.0,-100.00,NE,40,1.0,4.0,95,0.00,,,-99.99,,2013-04-11 11:52:00,
2013-04-11 07:02:00,38.0,37.0,-100.00,NE,40,1.0,4.0,95,0.00,,,-99.99,,2013-04-11 12:02:00,
2013-04-11 07:12:00,39.0,37.0,-100.00,ENE,60,1.0,4.0,95,0.00,,,-99.99,,2013-04-11 12:12:00,
2013-04-11 07:22:00,38.0,37.0,-100.00,NE,45,1.0,4.0,95,0.00,,,-99.99,,2013-04-11 12:22:00,
2013-04-11 07:32:00,39.0,38.0,-100.00,ESE,115,2.0,3.0,95,0.00,,,-99.99,,2013-04-11 12:32:00,
2013-04-11 07:42:00,39.0,38.0,-100.00,ESE,115,2.0,3.0,95,0.00,,,-99.99,,2013-04-11 12:42:00,
2013-04-11 07:52:00,39.0,38.0,-100.00,SE,145,3.0,5.0,95,0.00,,,-99.99,,2013-04-11 12:52:00,
2013-04-11 08:02:00,39.0,38.0,-100.00,SE,145,3.0,5.0,95,0.00,,,-99.99,,2013-04-11 13:02:00,
2013-04-11 08:12:00,39.0,38.0,-100.00,ESE,120,6.0,7.0,95,0.00,,,-99.99,,2013-04-11 13:12:00,
2013-04-11 08:22:00,40.0,38.0,-100.00,SSE,155,4.0,7.0,95,0.00,,,-99.99,,2013-04-11 13:22:00,
2013-04-11 08:32:00,40.0,38.0,-100.00,SE,135,7.0,7.0,95,0.00,,,-99.99,,2013-04-11 13:32:00,
2013-04-11 08:43:00,40.0,38.0,-100.00,SE,135,7.0,7.0,95,0.00,,,-99.99,,2013-04-11 13:43:00,
2013-04-11 08:52:00,40.0,39.0,-100.00,SSE,155,4.0,7.0,95,0.00,,,-99.99,,2013-04-11 13:52:00,
2013-04-11 09:02:00,40.0,39.0,-100.00,SSE,155,4.0,7.0,95,0.00,,,-99.99,,2013-04-11 14:02:00,
2013-04-11 09:12:00,40.0,39.0,-100.00,South,175,4.0,7.0,95,0.00,,,-99.99,,2013-04-11 14:12:00,
2013-04-11 09:22:00,40.0,39.0,-100.00,SSW,195,6.0,6.0,95,0.00,,,-99.99,,2013-04-11 14:22:00,
2013-04-11 09:42:00,41.0,40.0,-100.00,South,190,7.0,9.0,95,0.00,,,-99.99,,2013-04-11 14:42:00,
2013-04-11 09:52:00,41.0,40.0,-100.00,SSW,205,7.0,9.0,95,0.00,,,-99.99,,2013-04-11 14:52:00,
2013-04-11 10:02:00,41.0,40.0,-100.00,SSW,205,7.0,9.0,95,0.00,,,-99.99,,2013-04-11 15:02:00,
2013-04-11 10:12:00,40.0,39.0,-100.00,SSW,205,9.0,12.0,95,0.28,,,-99.99,,2013-04-11 15:12:00,
2013-04-11 10:22:00,41.0,40.0,-100.00,SSW,210,9.0,12.0,95,0.00,,,-99.99,,2013-04-11 15:22:00,
2013-04-11 10:32:00,42.0,41.0,-100.00,WSW,245,7.0,9.0,95,0.00,,,-99.99,,2013-04-11 15:32:00,
2013-04-11 10:43:00,42.0,41.0,-100.00,WSW,245,7.0,9.0,95,0.00,,,-99.99,,2013-04-11 15:43:00,
2013-04-11 10:52:00,42.0,41.0,-100.00,WSW,245,7.0,9.0,95,0.00,,,-99.99,,2013-04-11 15:52:00,
2013-04-11 11:02:00,42.0,41.0,-100.00,WSW,245,7.0,9.0,95,0.00,,,-99.99,,2013-04-11 16:02:00,
2013-04-11 11:12:00,41.0,40.0,-100.00,SW,230,9.0,15.0,95,0.00,,,-99.99,,2013-04-11 16:12:00,
2013-04-11 11:23:00,40.0,39.0,-100.00,WSW,240,11.0,16.0,95,0.00,,,-99.99,,2013-04-11 16:23:00,
2013-04-11 11:32:00,41.0,40.0,-100.00,SW,235,10.0,15.0,95,0.00,,,-99.99,,2013-04-11 16:32:00,
2013-04-11 11:42:00,41.0,40.0,-100.00,SW,235,10.0,15.0,95,0.00,,,-99.99,,2013-04-11 16:42:00,
2013-04-11 11:52:00,41.0,39.0,-100.00,SW,235,10.0,14.0,94,0.00,,,-99.99,,2013-04-11 16:52:00,
2013-04-11 12:02:00,41.0,39.0,-100.00,SW,235,10.0,14.0,94,0.00,,,-99.99,,2013-04-11 17:02:00,
2013-04-11 12:12:00,41.0,39.0,-100.00,WSW,245,10.0,14.0,93,0.00,,,-99.99,,2013-04-11 17:12:00,
2013-04-11 12:23:00,40.0,38.0,-100.00,WSW,255,14.0,17.0,93,0.04,,,-99.99,,2013-04-11 17:23:00,
2013-04-11 12:32:00,40.0,38.0,-100.00,SW,235,14.0,18.0,92,0.17,,,-99.99,,2013-04-11 17:32:00,
2013-04-11 12:42:00,40.0,38.0,-100.00,SW,235,14.0,18.0,92,0.17,,,-99.99,,2013-04-11 17:42:00,
2013-04-11 12:52:00,40.0,38.0,-100.00,WSW,240,12.0,17.0,92,0.03,,,-99.99,,2013-04-11 17:52:00,
2013-04-11 13:03:00,40.0,38.0,-100.00,WSW,240,12.0,17.0,92,0.03,,,-99.99,,2013-04-11 18:03:00,
2013-04-11 13:13:00,41.0,38.0,-100.00,WSW,250,13.0,20.0,91,0.01,,,-99.99,,2013-04-11 18:13:00,
2013-04-11 13:22:00,41.0,38.0,-100.00,WSW,250,13.0,20.0,91,0.01,,,-99.99,,2013-04-11 18:22:00,
2013-04-11 13:33:00,40.0,37.0,-100.00,WSW,250,11.0,16.0,89,0.00,,,-99.99,,2013-04-11 18:33:00,
2013-04-11 13:42:00,40.0,37.0,-100.00,WSW,250,11.0,16.0,89,0.00,,,-99.99,,2013-04-11 18:42:00,
2013-04-11 13:52:00,40.0,37.0,-100.00,WSW,255,11.0,20.0,87,0.01,,,-99.99,,2013-04-11 18:52:00,
2013-04-11 14:03:00,40.0,37.0,-100.00,WSW,255,11.0,20.0,87,0.01,,,-99.99,,2013-04-11 19:03:00,
2013-04-11 14:13:00,40.0,37.0,-100.00,WSW,255,11.0,16.0,87,0.00,,,-99.99,,2013-04-11 19:13:00,
2013-04-11 14:22:00,40.0,36.0,-100.00,SW,235,12.0,17.0,87,0.06,,,-99.99,,2013-04-11 19:22:00,
2013-04-11 14:32:00,38.0,35.0,-100.00,WSW,255,15.0,19.0,89,0.20,,,-99.99,,2013-04-11 19:32:00,
2013-04-11 14:42:00,38.0,35.0,-100.00,WSW,255,15.0,19.0,89,0.20,,,-99.99,,2013-04-11 19:42:00,
2013-04-11 14:52:00,38.0,35.0,-100.00,West,260,17.0,24.0,91,0.18,,,-99.99,,2013-04-11 19:52:00,
2013-04-11 15:02:00,38.0,35.0,-100.00,West,260,17.0,24.0,91,0.18,,,-99.99,,2013-04-11 20:02:00,
2013-04-11 15:13:00,37.0,35.0,-100.00,WSW,245,20.0,24.0,91,0.00,,,-99.99,,2013-04-11 20:13:00,
2013-04-11 15:22:00,37.0,35.0,-100.00,West,265,14.0,23.0,91,0.00,,,-99.99,,2013-04-11 20:22:00,
2013-04-11 15:33:00,36.0,35.0,-100.00,WSW,255,14.0,19.0,92,0.00,,,-99.99,,2013-04-11 20:33:00,
2013-04-11 15:42:00,36.0,35.0,-100.00,WSW,255,14.0,19.0,92,0.00,,,-99.99,,2013-04-11 20:42:00,
2013-04-11 15:52:00,37.0,35.0,-100.00,WSW,245,12.0,19.0,90,0.00,,,-99.99,,2013-04-11 20:52:00,
2013-04-11 16:02:00,37.0,35.0,-100.00,WSW,245,12.0,19.0,90,0.00,,,-99.99,,2013-04-11 21:02:00,
2013-04-11 16:12:00,38.0,35.0,-100.00,SW,230,13.0,16.0,89,0.00,,,-99.99,,2013-04-11 21:12:00,
2013-04-11 16:22:00,37.0,34.0,-100.00,West,270,9.0,17.0,88,0.00,,,-99.99,,2013-04-11 21:22:00,
2013-04-11 16:33:00,39.0,36.0,-100.00,West,270,10.0,14.0,88,0.00,,,-99.99,,2013-04-11 21:33:00,
2013-04-11 16:42:00,39.0,36.0,-100.00,West,270,10.0,14.0,88,0.00,,,-99.99,,2013-04-11 21:42:00,
2013-04-11 16:53:00,38.0,35.0,-100.00,West,260,11.0,13.0,85,0.00,,,-99.99,,2013-04-11 21:53:00,
2013-04-11 17:03:00,38.0,35.0,-100.00,West,260,11.0,13.0,85,0.00,,,-99.99,,2013-04-11 22:03:00,
2013-04-11 17:13:00,37.0,33.0,-100.00,WSW,245,9.0,17.0,85,0.21,,,-99.99,,2013-04-11 22:13:00,
2013-04-11 17:23:00,37.0,33.0,-100.00,West,260,14.0,17.0,86,0.01,,,-99.99,,2013-04-11 22:23:00,
2013-04-11 17:33:00,36.0,33.0,-100.00,WSW,240,11.0,17.0,87,0.31,,,-99.99,,2013-04-11 22:33:00,
2013-04-11 17:44:00,36.0,33.0,-100.00,WSW,240,11.0,17.0,87,0.31,,,-99.99,,2013-04-11 22:44:00,
2013-04-11 17:52:00,37.0,34.0,-100.00,SW,230,14.0,18.0,90,0.00,,,-99.99,,2013-04-11 22:52:00,
2013-04-11 18:03:00,37.0,34.0,-100.00,SW,230,14.0,18.0,90,0.00,,,-99.99,,2013-04-11 23:03:00,
2013-04-11 18:12:00,36.0,34.0,-100.00,SW,235,12.0,17.0,91,0.06,,,-99.99,,2013-04-11 23:12:00,
2013-04-11 18:23:00,36.0,34.0,-100.00,SW,230,12.0,17.0,91,0.00,,,-99.99,,2013-04-11 23:23:00,
2013-04-11 18:32:00,37.0,34.0,-100.00,WSW,250,11.0,15.0,91,0.00,,,-99.99,,2013-04-11 23:32:00,
2013-04-11 18:42:00,37.0,34.0,-100.00,WSW,250,11.0,15.0,91,0.00,,,-99.99,,2013-04-11 23:42:00,
2013-04-11 18:52:00,37.0,34.0,-100.00,WSW,250,9.0,15.0,89,0.00,,,-99.99,,2013-04-11 23:52:00,
2013-04-11 19:02:00,37.0,34.0,-100.00,WSW,250,9.0,15.0,89,0.00,,,-99.99,,2013-04-12 00:02:00,
2013-04-11 19:12:00,36.0,33.0,-100.00,WSW,245,12.0,16.0,88,0.00,,,-99.99,,2013-04-12 00:12:00,
2013-04-11 19:22:00,37.0,33.0,-100.00,SW,235,10.0,14.0,86,0.00,,,-99.99,,2013-04-12 00:22:00,
2013-04-11 19:32:00,37.0,33.0,-100.00,SW,220,11.0,16.0,85,0.00,,,-99.99,,2013-04-12 00:32:00,
2013-04-11 19:42:00,37.0,33.0,-100.00,SW,220,11.0,16.0,85,0.00,,,-99.99,,2013-04-12 00:42:00,
2013-04-11 19:52:00,37.0,33.0,-100.00,SW,220,12.0,16.0,85,0.00,,,-99.99,,2013-04-12 00:52:00,
2013-04-11 20:02:00,37.0,33.0,-100.00,SW,220,12.0,16.0,85,0.00,,,-99.99,,2013-04-12 01:02:00,
2013-04-11 20:12:00,37.0,33.0,-100.00,SW,220,14.0,17.0,85,0.00,,,-99.99,,2013-04-12 01:12:00,
2013-04-11 20:22:00,36.0,33.0,-100.00,SW,230,12.0,17.0,85,0.00,,,-99.99,,2013-04-12 01:22:00,
2013-04-11 20:32:00,36.0,33.0,-100.00,SW,230,10.0,16.0,85,0.00,,,-99.99,,2013-04-12 01:32:00,
2013-04-11 20:42:00,36.0,33.0,-100.00,SW,230,10.0,16.0,85,0.00,,,-99.99,,2013-04-12 01:42:00,
2013-04-11 20:52:00,36.0,32.0,-100.00,SW,220,11.0,14.0,85,0.00,,,-99.99,,2013-04-12 01:52:00,
2013-04-11 21:03:00,36.0,32.0,-100.00,SW,220,11.0,14.0,85,0.00,,,-99.99,,2013-04-12 02:03:00,
2013-04-11 21:12:00,36.0,33.0,-100.00,SW,225,11.0,14.0,85,0.00,,,-99.99,,2013-04-12 02:12:00,
2013-04-11 21:22:00,36.0,33.0,-100.00,SW,215,12.0,15.0,86,0.00,,,-99.99,,2013-04-12 02:22:00,
2013-04-11 21:32:00,36.0,33.0,-100.00,SW,220,11.0,14.0,87,0.00,,,-99.99,,2013-04-12 02:32:00,
2013-04-11 21:42:00,36.0,33.0,-100.00,SW,220,11.0,14.0,87,0.00,,,-99.99,,2013-04-12 02:42:00,
2013-04-11 21:52:00,36.0,33.0,-100.00,SW,230,8.0,14.0,88,0.00,,,-99.99,,2013-04-12 02:52:00,
2013-04-11 22:02:00,36.0,33.0,-100.00,SW,230,8.0,14.0,88,0.00,,,-99.99,,2013-04-12 03:02:00,
2013-04-11 22:12:00,36.0,33.0,-100.00,SW,225,10.0,13.0,88,0.00,,,-99.99,,2013-04-12 03:12:00,
2013-04-11 22:22:00,36.0,33.0,-100.00,SW,225,12.0,14.0,89,0.00,,,-99.99,,2013-04-12 03:22:00,
2013-04-11 22:33:00,36.0,34.0,-100.00,SW,215,11.0,13.0,90,0.00,,,-99.99,,2013-04-12 03:33:00,
2013-04-11 22:43:00,36.0,34.0,-100.00,SW,215,11.0,13.0,90,0.00,,,-99.99,,2013-04-12 03:43:00,
2013-04-11 22:52:00,36.0,34.0,-100.00,SSW,200,8.0,12.0,92,0.00,,,-99.99,,2013-04-12 03:52:00,
2013-04-11 23:03:00,36.0,34.0,-100.00,SSW,200,8.0,12.0,92,0.00,,,-99.99,,2013-04-12 04:03:00,
2013-04-11 23:13:00,36.0,34.0,-100.00,SSW,200,7.0,11.0,92,0.00,,,-99.99,,2013-04-12 04:13:00,
2013-04-11 23:22:00,36.0,35.0,-100.00,SSW,210,7.0,10.0,93,0.00,,,-99.99,,2013-04-12 04:22:00,
2013-04-11 23:33:00,36.0,35.0,-100.00,WSW,240,9.0,12.0,93,0.00,,,-99.99,,2013-04-12 04:33:00,
2013-04-11 23:43:00,36.0,35.0,-100.00,WSW,240,9.0,12.0,93,0.00,,,-99.99,,2013-04-12 04:43:00,
2013-04-11 23:52:00,37.0,35.0,-100.00,West,260,9.0,13.0,94,0.00,,,-99.99,,2013-04-12 04:52:00,